sensor_id;sensor_type;location;lat;lon;timestamp;temperature;humidity
4651;DHT22;2338;49.602;8.722;2022-07-22T00:01:09;20.10;99.90
4651;DHT22;2338;49.602;8.722;2022-07-22T00:03:54;20.00;99.90
4651;DHT22;2338;49.602;8.722;2022-07-22T00:06:40;19.90;99.90
4651;DHT22;2338;49.602;8.722;2022-07-22T00:09:26;19.90;99.90
4651;DHT22;2338;49.602;8.722;2022-07-22T00:12:11;19.90;99.90
4651;DHT22;2338;49.602;8.722;2022-07-22T00:14:59;19.90;99.90
4651;DHT22;2338;49.602;8.722;2022-07-22T00:17:44;19.90;99.90
4651;DHT22;2338;49.602;8.722;2022-07-22T00:20:30;19.80;99.90
4651;DHT22;2338;49.602;8.722;2022-07-22T00:23:16;20.00;99.90
4651;DHT22;2338;49.602;8.722;2022-07-22T00:26:02;19.80;99.90
4651;DHT22;2338;49.602;8.722;2022-07-22T00:28:48;19.80;99.90
4651;DHT22;2338;49.602;8.722;2022-07-22T00:31:35;19.80;99.90
4651;DHT22;2338;49.602;8.722;2022-07-22T00:34:20;19.80;99.90
4651;DHT22;2338;49.602;8.722;2022-07-22T00:37:06;19.80;99.90
4651;DHT22;2338;49.602;8.722;2022-07-22T00:39:52;19.90;99.90
4651;DHT22;2338;49.602;8.722;2022-07-22T00:42:38;20.00;99.90
4651;DHT22;2338;49.602;8.722;2022-07-22T00:45:23;19.80;99.90
4651;DHT22;2338;49.602;8.722;2022-07-22T00:48:10;19.60;99.90
4651;DHT22;2338;49.602;8.722;2022-07-22T00:50:55;19.50;99.90
4651;DHT22;2338;49.602;8.722;2022-07-22T00:53:41;19.40;99.90
4651;DHT22;2338;49.602;8.722;2022-07-22T00:56:28;19.30;99.90
4651;DHT22;2338;49.602;8.722;2022-07-22T00:59:14;19.30;99.90
4651;DHT22;2338;49.602;8.722;2022-07-22T01:02:00;19.40;99.90
4651;DHT22;2338;49.602;8.722;2022-07-22T01:04:47;19.50;99.90
4651;DHT22;2338;49.602;8.722;2022-07-22T01:07:33;19.60;99.90
4651;DHT22;2338;49.602;8.722;2022-07-22T01:10:19;19.60;99.90
4651;DHT22;2338;49.602;8.722;2022-07-22T01:13:05;19.50;99.90
4651;DHT22;2338;49.602;8.722;2022-07-22T01:15:51;19.30;99.90
4651;DHT22;2338;49.602;8.722;2022-07-22T01:18:37;19.40;99.90
4651;DHT22;2338;49.602;8.722;2022-07-22T01:21:25;19.40;99.90
4651;DHT22;2338;49.602;8.722;2022-07-22T01:24:10;19.40;99.90
4651;DHT22;2338;49.602;8.722;2022-07-22T01:26:56;19.30;99.90
4651;DHT22;2338;49.602;8.722;2022-07-22T01:29:41;19.10;99.90
4651;DHT22;2338;49.602;8.722;2022-07-22T01:32:27;18.90;99.90
4651;DHT22;2338;49.602;8.722;2022-07-22T01:35:12;19.00;99.90
4651;DHT22;2338;49.602;8.722;2022-07-22T01:37:59;19.00;99.90
4651;DHT22;2338;49.602;8.722;2022-07-22T01:40:45;19.00;99.90
4651;DHT22;2338;49.602;8.722;2022-07-22T01:43:31;18.90;99.90
4651;DHT22;2338;49.602;8.722;2022-07-22T01:46:17;18.90;99.90
4651;DHT22;2338;49.602;8.722;2022-07-22T01:49:03;19.10;99.90
4651;DHT22;2338;49.602;8.722;2022-07-22T01:51:49;19.10;99.90
4651;DHT22;2338;49.602;8.722;2022-07-22T01:54:36;19.10;99.90
4651;DHT22;2338;49.602;8.722;2022-07-22T01:57:21;19.20;99.90
4651;DHT22;2338;49.602;8.722;2022-07-22T02:00:08;19.00;99.90
4651;DHT22;2338;49.602;8.722;2022-07-22T02:02:55;18.80;99.90
4651;DHT22;2338;49.602;8.722;2022-07-22T02:05:41;18.60;99.90
4651;DHT22;2338;49.602;8.722;2022-07-22T02:08:26;18.80;99.90
4651;DHT22;2338;49.602;8.722;2022-07-22T02:11:14;18.70;99.90
4651;DHT22;2338;49.602;8.722;2022-07-22T02:13:59;18.70;99.90
4651;DHT22;2338;49.602;8.722;2022-07-22T02:16:45;18.80;99.90
4651;DHT22;2338;49.602;8.722;2022-07-22T02:19:31;18.80;99.90
4651;DHT22;2338;49.602;8.722;2022-07-22T02:22:16;18.80;99.90
4651;DHT22;2338;49.602;8.722;2022-07-22T02:25:02;18.90;99.90
4651;DHT22;2338;49.602;8.722;2022-07-22T02:27:49;19.00;99.90
4651;DHT22;2338;49.602;8.722;2022-07-22T02:30:35;18.80;99.90
4651;DHT22;2338;49.602;8.722;2022-07-22T02:33:21;18.70;99.90
4651;DHT22;2338;49.602;8.722;2022-07-22T02:36:07;18.60;99.90
4651;DHT22;2338;49.602;8.722;2022-07-22T02:38:53;18.60;99.90
4651;DHT22;2338;49.602;8.722;2022-07-22T02:41:38;18.60;99.90
4651;DHT22;2338;49.602;8.722;2022-07-22T02:44:26;18.70;99.90
4651;DHT22;2338;49.602;8.722;2022-07-22T02:47:11;18.70;99.90
4651;DHT22;2338;49.602;8.722;2022-07-22T02:49:57;18.70;99.90
4651;DHT22;2338;49.602;8.722;2022-07-22T02:52:42;18.60;99.90
4651;DHT22;2338;49.602;8.722;2022-07-22T02:55:28;18.70;99.90
4651;DHT22;2338;49.602;8.722;2022-07-22T02:58:14;18.70;99.90
4651;DHT22;2338;49.602;8.722;2022-07-22T03:01:00;18.80;99.90
4651;DHT22;2338;49.602;8.722;2022-07-22T03:03:46;18.90;99.90
4651;DHT22;2338;49.602;8.722;2022-07-22T03:06:32;18.90;99.90
4651;DHT22;2338;49.602;8.722;2022-07-22T03:09:17;18.80;99.90
4651;DHT22;2338;49.602;8.722;2022-07-22T03:12:03;18.70;99.90
4651;DHT22;2338;49.602;8.722;2022-07-22T03:14:49;18.60;99.90
4651;DHT22;2338;49.602;8.722;2022-07-22T03:17:36;18.40;99.90
4651;DHT22;2338;49.602;8.722;2022-07-22T03:20:22;18.40;99.90
4651;DHT22;2338;49.602;8.722;2022-07-22T03:23:08;18.30;99.90
4651;DHT22;2338;49.602;8.722;2022-07-22T03:25:55;18.30;99.90
4651;DHT22;2338;49.602;8.722;2022-07-22T03:28:41;18.30;99.90
4651;DHT22;2338;49.602;8.722;2022-07-22T03:31:26;18.30;99.90
4651;DHT22;2338;49.602;8.722;2022-07-22T03:34:14;18.10;99.90
4651;DHT22;2338;49.602;8.722;2022-07-22T03:36:59;18.00;99.90
4651;DHT22;2338;49.602;8.722;2022-07-22T03:39:45;17.80;99.90
4651;DHT22;2338;49.602;8.722;2022-07-22T03:42:30;17.70;99.90
4651;DHT22;2338;49.602;8.722;2022-07-22T03:45:16;17.70;99.90
4651;DHT22;2338;49.602;8.722;2022-07-22T03:48:02;17.90;99.90
4651;DHT22;2338;49.602;8.722;2022-07-22T03:50:49;18.00;99.90
4651;DHT22;2338;49.602;8.722;2022-07-22T03:53:36;18.10;99.90
4651;DHT22;2338;49.602;8.722;2022-07-22T03:56:21;18.00;99.90
4651;DHT22;2338;49.602;8.722;2022-07-22T03:59:07;17.90;99.90
4651;DHT22;2338;49.602;8.722;2022-07-22T04:01:52;17.90;99.90
4651;DHT22;2338;49.602;8.722;2022-07-22T04:04:38;17.70;99.90
4651;DHT22;2338;49.602;8.722;2022-07-22T04:07:25;17.80;99.90
4651;DHT22;2338;49.602;8.722;2022-07-22T04:10:12;17.80;99.90
4651;DHT22;2338;49.602;8.722;2022-07-22T04:12:57;17.80;99.90
4651;DHT22;2338;49.602;8.722;2022-07-22T04:15:43;17.90;99.90
4651;DHT22;2338;49.602;8.722;2022-07-22T04:18:30;17.90;99.90
4651;DHT22;2338;49.602;8.722;2022-07-22T04:21:16;18.00;99.90
4651;DHT22;2338;49.602;8.722;2022-07-22T04:24:03;18.00;99.90
4651;DHT22;2338;49.602;8.722;2022-07-22T04:26:49;18.10;99.90
4651;DHT22;2338;49.602;8.722;2022-07-22T04:29:35;18.30;99.90
4651;DHT22;2338;49.602;8.722;2022-07-22T04:32:20;18.30;99.90
4651;DHT22;2338;49.602;8.722;2022-07-22T04:35:06;18.40;99.90
4651;DHT22;2338;49.602;8.722;2022-07-22T04:37:52;18.50;99.90
4651;DHT22;2338;49.602;8.722;2022-07-22T04:40:39;18.60;99.90
4651;DHT22;2338;49.602;8.722;2022-07-22T04:43:25;18.60;99.90
4651;DHT22;2338;49.602;8.722;2022-07-22T04:46:10;18.60;99.90
4651;DHT22;2338;49.602;8.722;2022-07-22T04:48:56;18.60;99.90
4651;DHT22;2338;49.602;8.722;2022-07-22T04:51:42;18.70;99.90
4651;DHT22;2338;49.602;8.722;2022-07-22T04:54:27;18.70;99.90
4651;DHT22;2338;49.602;8.722;2022-07-22T04:57:14;18.80;99.90
4651;DHT22;2338;49.602;8.722;2022-07-22T05:00:00;18.80;99.90
4651;DHT22;2338;49.602;8.722;2022-07-22T05:02:46;18.80;99.90
4651;DHT22;2338;49.602;8.722;2022-07-22T05:05:31;18.80;99.90
4651;DHT22;2338;49.602;8.722;2022-07-22T05:08:17;18.90;99.90
4651;DHT22;2338;49.602;8.722;2022-07-22T05:11:03;19.00;99.90
4651;DHT22;2338;49.602;8.722;2022-07-22T05:13:49;19.00;99.90
4651;DHT22;2338;49.602;8.722;2022-07-22T05:16:35;19.10;99.90
4651;DHT22;2338;49.602;8.722;2022-07-22T05:19:22;19.20;99.90
4651;DHT22;2338;49.602;8.722;2022-07-22T05:22:08;19.30;99.90
4651;DHT22;2338;49.602;8.722;2022-07-22T05:24:53;19.30;99.90
4651;DHT22;2338;49.602;8.722;2022-07-22T05:27:49;19.30;99.90
4651;DHT22;2338;49.602;8.722;2022-07-22T05:30:36;19.30;99.90
4651;DHT22;2338;49.602;8.722;2022-07-22T05:33:22;19.40;99.90
4651;DHT22;2338;49.602;8.722;2022-07-22T05:36:08;19.40;99.90
4651;DHT22;2338;49.602;8.722;2022-07-22T05:38:54;19.50;99.90
4651;DHT22;2338;49.602;8.722;2022-07-22T05:41:40;19.60;99.90
4651;DHT22;2338;49.602;8.722;2022-07-22T05:44:25;19.60;99.90
4651;DHT22;2338;49.602;8.722;2022-07-22T05:47:13;19.80;99.90
4651;DHT22;2338;49.602;8.722;2022-07-22T05:49:58;19.80;99.90
4651;DHT22;2338;49.602;8.722;2022-07-22T05:52:44;19.90;99.90
4651;DHT22;2338;49.602;8.722;2022-07-22T05:55:30;20.00;99.90
4651;DHT22;2338;49.602;8.722;2022-07-22T05:58:15;20.10;99.90
4651;DHT22;2338;49.602;8.722;2022-07-22T06:01:01;20.20;99.90
4651;DHT22;2338;49.602;8.722;2022-07-22T06:03:48;20.30;99.90
4651;DHT22;2338;49.602;8.722;2022-07-22T06:06:34;20.30;99.90
4651;DHT22;2338;49.602;8.722;2022-07-22T06:09:20;20.40;99.90
4651;DHT22;2338;49.602;8.722;2022-07-22T06:12:06;20.40;99.90
4651;DHT22;2338;49.602;8.722;2022-07-22T06:14:52;20.50;99.90
4651;DHT22;2338;49.602;8.722;2022-07-22T06:17:37;20.60;99.90
4651;DHT22;2338;49.602;8.722;2022-07-22T06:20:25;20.70;99.90
4651;DHT22;2338;49.602;8.722;2022-07-22T06:23:10;20.80;99.90
4651;DHT22;2338;49.602;8.722;2022-07-22T06:25:56;20.90;99.90
4651;DHT22;2338;49.602;8.722;2022-07-22T06:28:42;20.90;99.90
4651;DHT22;2338;49.602;8.722;2022-07-22T06:31:27;20.90;99.90
4651;DHT22;2338;49.602;8.722;2022-07-22T06:34:13;20.90;99.90
4651;DHT22;2338;49.602;8.722;2022-07-22T06:37:00;21.00;99.90
4651;DHT22;2338;49.602;8.722;2022-07-22T06:39:45;21.10;99.90
4651;DHT22;2338;49.602;8.722;2022-07-22T06:42:32;21.10;99.90
4651;DHT22;2338;49.602;8.722;2022-07-22T06:45:18;21.20;99.90
4651;DHT22;2338;49.602;8.722;2022-07-22T06:48:03;21.20;99.90
4651;DHT22;2338;49.602;8.722;2022-07-22T06:50:49;21.30;99.90
4651;DHT22;2338;49.602;8.722;2022-07-22T06:53:36;21.40;99.90
4651;DHT22;2338;49.602;8.722;2022-07-22T06:56:22;21.50;99.90
4651;DHT22;2338;49.602;8.722;2022-07-22T06:59:08;21.60;99.90
4651;DHT22;2338;49.602;8.722;2022-07-22T07:01:54;21.60;99.90
4651;DHT22;2338;49.602;8.722;2022-07-22T07:04:40;21.70;99.90
4651;DHT22;2338;49.602;8.722;2022-07-22T07:07:25;21.70;99.90
4651;DHT22;2338;49.602;8.722;2022-07-22T07:10:12;21.70;99.90
4651;DHT22;2338;49.602;8.722;2022-07-22T07:13:00;21.80;99.90
4651;DHT22;2338;49.602;8.722;2022-07-22T07:15:45;21.80;99.90
4651;DHT22;2338;49.602;8.722;2022-07-22T07:18:31;21.80;99.60
4651;DHT22;2338;49.602;8.722;2022-07-22T07:21:17;22.00;99.50
4651;DHT22;2338;49.602;8.722;2022-07-22T07:24:02;22.00;99.60
4651;DHT22;2338;49.602;8.722;2022-07-22T07:26:49;22.10;98.30
4651;DHT22;2338;49.602;8.722;2022-07-22T07:29:35;22.10;99.40
4651;DHT22;2338;49.602;8.722;2022-07-22T07:32:21;22.20;98.40
4651;DHT22;2338;49.602;8.722;2022-07-22T07:35:07;22.20;97.10
4651;DHT22;2338;49.602;8.722;2022-07-22T07:37:53;22.30;97.10
4651;DHT22;2338;49.602;8.722;2022-07-22T07:40:39;22.30;97.30
4651;DHT22;2338;49.602;8.722;2022-07-22T07:43:25;22.50;95.60
4651;DHT22;2338;49.602;8.722;2022-07-22T07:46:11;22.50;94.90
4651;DHT22;2338;49.602;8.722;2022-07-22T07:48:56;22.50;95.00
4651;DHT22;2338;49.602;8.722;2022-07-22T07:51:42;22.40;93.60
4651;DHT22;2338;49.602;8.722;2022-07-22T07:54:28;22.50;94.40
4651;DHT22;2338;49.602;8.722;2022-07-22T07:57:14;22.60;95.00
4651;DHT22;2338;49.602;8.722;2022-07-22T08:00:02;22.70;94.20
4651;DHT22;2338;49.602;8.722;2022-07-22T08:02:48;22.80;93.80
4651;DHT22;2338;49.602;8.722;2022-07-22T08:05:35;22.90;93.90
4651;DHT22;2338;49.602;8.722;2022-07-22T08:08:23;22.80;93.80
4651;DHT22;2338;49.602;8.722;2022-07-22T08:11:08;22.90;94.10
4651;DHT22;2338;49.602;8.722;2022-07-22T08:13:54;23.00;93.10
4651;DHT22;2338;49.602;8.722;2022-07-22T08:16:41;23.10;92.90
4651;DHT22;2338;49.602;8.722;2022-07-22T08:19:27;23.10;92.40
4651;DHT22;2338;49.602;8.722;2022-07-22T08:22:13;23.00;91.70
4651;DHT22;2338;49.602;8.722;2022-07-22T08:24:59;23.10;91.10
4651;DHT22;2338;49.602;8.722;2022-07-22T08:27:45;23.20;91.90
4651;DHT22;2338;49.602;8.722;2022-07-22T08:30:31;23.20;91.90
4651;DHT22;2338;49.602;8.722;2022-07-22T08:33:19;23.20;90.90
4651;DHT22;2338;49.602;8.722;2022-07-22T08:36:05;23.40;90.20
4651;DHT22;2338;49.602;8.722;2022-07-22T08:38:50;23.40;90.00
4651;DHT22;2338;49.602;8.722;2022-07-22T08:41:37;23.50;90.10
4651;DHT22;2338;49.602;8.722;2022-07-22T08:44:24;23.50;89.60
4651;DHT22;2338;49.602;8.722;2022-07-22T08:47:09;23.60;88.70
4651;DHT22;2338;49.602;8.722;2022-07-22T08:49:57;23.50;86.70
4651;DHT22;2338;49.602;8.722;2022-07-22T08:52:43;23.60;88.30
4651;DHT22;2338;49.602;8.722;2022-07-22T08:55:29;23.70;88.80
4651;DHT22;2338;49.602;8.722;2022-07-22T08:58:14;23.80;86.70
4651;DHT22;2338;49.602;8.722;2022-07-22T09:01:06;23.80;82.40
4651;DHT22;2338;49.602;8.722;2022-07-22T09:03:54;23.70;83.80
4651;DHT22;2338;49.602;8.722;2022-07-22T09:06:48;23.70;84.70
4651;DHT22;2338;49.602;8.722;2022-07-22T09:09:34;23.80;84.40
4651;DHT22;2338;49.602;8.722;2022-07-22T09:12:20;23.90;84.80
4651;DHT22;2338;49.602;8.722;2022-07-22T09:15:07;24.00;84.50
4651;DHT22;2338;49.602;8.722;2022-07-22T09:17:53;24.10;84.40
4651;DHT22;2338;49.602;8.722;2022-07-22T09:20:39;24.20;84.40
4651;DHT22;2338;49.602;8.722;2022-07-22T09:23:26;24.40;82.50
4651;DHT22;2338;49.602;8.722;2022-07-22T09:26:31;24.40;80.60
4651;DHT22;2338;49.602;8.722;2022-07-22T09:29:18;24.50;74.80
4651;DHT22;2338;49.602;8.722;2022-07-22T09:32:06;24.40;76.50
4651;DHT22;2338;49.602;8.722;2022-07-22T09:35:02;24.50;78.20
4651;DHT22;2338;49.602;8.722;2022-07-22T09:37:50;24.50;76.60
4651;DHT22;2338;49.602;8.722;2022-07-22T09:40:38;24.60;76.20
4651;DHT22;2338;49.602;8.722;2022-07-22T09:43:24;24.70;77.40
4651;DHT22;2338;49.602;8.722;2022-07-22T09:46:16;24.80;75.80
4651;DHT22;2338;49.602;8.722;2022-07-22T09:49:02;25.00;72.40
4651;DHT22;2338;49.602;8.722;2022-07-22T09:51:48;25.10;74.00
4651;DHT22;2338;49.602;8.722;2022-07-22T09:54:33;25.30;72.40
4651;DHT22;2338;49.602;8.722;2022-07-22T09:57:20;25.30;71.40
4651;DHT22;2338;49.602;8.722;2022-07-22T10:00:07;25.10;69.00
4651;DHT22;2338;49.602;8.722;2022-07-22T10:02:55;25.00;71.70
4651;DHT22;2338;49.602;8.722;2022-07-22T10:05:42;24.90;71.70
4651;DHT22;2338;49.602;8.722;2022-07-22T10:08:29;25.00;71.60
4651;DHT22;2338;49.602;8.722;2022-07-22T10:11:15;25.10;70.80
4651;DHT22;2338;49.602;8.722;2022-07-22T10:14:03;25.30;70.90
4651;DHT22;2338;49.602;8.722;2022-07-22T10:16:48;25.30;68.60
4651;DHT22;2338;49.602;8.722;2022-07-22T10:19:34;25.30;67.80
4651;DHT22;2338;49.602;8.722;2022-07-22T10:22:46;25.30;66.60
4651;DHT22;2338;49.602;8.722;2022-07-22T10:25:49;25.50;69.30
4651;DHT22;2338;49.602;8.722;2022-07-22T10:28:37;25.70;64.80
4651;DHT22;2338;49.602;8.722;2022-07-22T10:31:25;25.80;67.10
4651;DHT22;2338;49.602;8.722;2022-07-22T10:34:10;26.00;67.60
4651;DHT22;2338;49.602;8.722;2022-07-22T10:36:56;26.20;66.40
4651;DHT22;2338;49.602;8.722;2022-07-22T10:40:10;26.40;66.50
4651;DHT22;2338;49.602;8.722;2022-07-22T10:43:08;26.50;64.70
4651;DHT22;2338;49.602;8.722;2022-07-22T10:45:56;26.60;64.10
4651;DHT22;2338;49.602;8.722;2022-07-22T10:48:46;26.80;64.80
4651;DHT22;2338;49.602;8.722;2022-07-22T10:51:32;26.90;64.10
4651;DHT22;2338;49.602;8.722;2022-07-22T10:54:18;27.00;60.20
4651;DHT22;2338;49.602;8.722;2022-07-22T10:57:03;27.00;57.70
4651;DHT22;2338;49.602;8.722;2022-07-22T10:59:53;27.10;54.70
4651;DHT22;2338;49.602;8.722;2022-07-22T11:02:40;27.10;57.20
4651;DHT22;2338;49.602;8.722;2022-07-22T11:05:28;27.10;57.10
4651;DHT22;2338;49.602;8.722;2022-07-22T11:08:14;27.20;56.70
4651;DHT22;2338;49.602;8.722;2022-07-22T11:11:00;27.30;60.40
4651;DHT22;2338;49.602;8.722;2022-07-22T11:13:46;27.30;53.90
4651;DHT22;2338;49.602;8.722;2022-07-22T11:16:31;27.30;54.10
4651;DHT22;2338;49.602;8.722;2022-07-22T11:19:22;27.40;57.70
4651;DHT22;2338;49.602;8.722;2022-07-22T11:22:11;27.40;53.80
4651;DHT22;2338;49.602;8.722;2022-07-22T11:25:00;27.50;57.60
4651;DHT22;2338;49.602;8.722;2022-07-22T11:27:50;27.70;54.80
4651;DHT22;2338;49.602;8.722;2022-07-22T11:30:36;27.80;53.20
4651;DHT22;2338;49.602;8.722;2022-07-22T11:33:22;27.80;52.80
4651;DHT22;2338;49.602;8.722;2022-07-22T11:36:08;27.80;51.60
4651;DHT22;2338;49.602;8.722;2022-07-22T11:38:56;27.90;52.60
4651;DHT22;2338;49.602;8.722;2022-07-22T11:41:42;28.00;50.30
4651;DHT22;2338;49.602;8.722;2022-07-22T11:44:29;28.10;50.90
4651;DHT22;2338;49.602;8.722;2022-07-22T11:47:15;28.00;46.60
4651;DHT22;2338;49.602;8.722;2022-07-22T11:50:01;28.20;47.50
4651;DHT22;2338;49.602;8.722;2022-07-22T11:52:51;28.30;46.20
4651;DHT22;2338;49.602;8.722;2022-07-22T11:55:39;28.30;47.60
4651;DHT22;2338;49.602;8.722;2022-07-22T11:58:35;28.30;46.50
4651;DHT22;2338;49.602;8.722;2022-07-22T12:01:23;28.30;47.70
4651;DHT22;2338;49.602;8.722;2022-07-22T12:04:10;28.40;47.70
4651;DHT22;2338;49.602;8.722;2022-07-22T12:06:58;28.60;47.30
4651;DHT22;2338;49.602;8.722;2022-07-22T12:09:44;28.80;46.10
4651;DHT22;2338;49.602;8.722;2022-07-22T12:12:40;28.90;44.30
4651;DHT22;2338;49.602;8.722;2022-07-22T12:15:26;29.00;45.70
4651;DHT22;2338;49.602;8.722;2022-07-22T12:18:17;29.10;47.20
4651;DHT22;2338;49.602;8.722;2022-07-22T12:21:05;29.20;41.30
4651;DHT22;2338;49.602;8.722;2022-07-22T12:23:53;29.30;40.90
4651;DHT22;2338;49.602;8.722;2022-07-22T12:26:41;29.40;41.00
4651;DHT22;2338;49.602;8.722;2022-07-22T12:29:30;29.30;40.20
4651;DHT22;2338;49.602;8.722;2022-07-22T12:32:18;29.30;41.00
4651;DHT22;2338;49.602;8.722;2022-07-22T12:35:09;29.40;40.40
4651;DHT22;2338;49.602;8.722;2022-07-22T12:38:06;29.50;41.50
4651;DHT22;2338;49.602;8.722;2022-07-22T12:40:52;29.60;39.40
4651;DHT22;2338;49.602;8.722;2022-07-22T12:43:38;29.70;38.10
4651;DHT22;2338;49.602;8.722;2022-07-22T12:46:25;29.70;38.80
4651;DHT22;2338;49.602;8.722;2022-07-22T12:49:11;29.90;38.20
4651;DHT22;2338;49.602;8.722;2022-07-22T12:52:08;30.00;38.20
4651;DHT22;2338;49.602;8.722;2022-07-22T12:54:54;30.20;39.90
4651;DHT22;2338;49.602;8.722;2022-07-22T12:57:40;30.30;38.20
4651;DHT22;2338;49.602;8.722;2022-07-22T13:00:28;30.50;37.40
4651;DHT22;2338;49.602;8.722;2022-07-22T13:03:16;30.50;37.30
4651;DHT22;2338;49.602;8.722;2022-07-22T13:06:04;30.50;35.10
4651;DHT22;2338;49.602;8.722;2022-07-22T13:08:50;30.40;35.00
4651;DHT22;2338;49.602;8.722;2022-07-22T13:11:36;30.30;34.20
4651;DHT22;2338;49.602;8.722;2022-07-22T13:14:24;30.30;34.90
4651;DHT22;2338;49.602;8.722;2022-07-22T13:17:09;30.20;32.70
4651;DHT22;2338;49.602;8.722;2022-07-22T13:19:58;30.00;34.10
4651;DHT22;2338;49.602;8.722;2022-07-22T13:22:44;30.20;37.40
4651;DHT22;2338;49.602;8.722;2022-07-22T13:25:30;30.50;35.00
4651;DHT22;2338;49.602;8.722;2022-07-22T13:28:16;30.80;34.00
4651;DHT22;2338;49.602;8.722;2022-07-22T13:31:02;30.90;33.30
4651;DHT22;2338;49.602;8.722;2022-07-22T13:33:49;31.00;33.60
4651;DHT22;2338;49.602;8.722;2022-07-22T13:36:36;31.10;33.80
4651;DHT22;2338;49.602;8.722;2022-07-22T13:39:22;31.20;33.40
4651;DHT22;2338;49.602;8.722;2022-07-22T13:42:08;31.40;33.90
4651;DHT22;2338;49.602;8.722;2022-07-22T13:44:54;31.60;31.90
4651;DHT22;2338;49.602;8.722;2022-07-22T13:47:39;31.60;30.60
4651;DHT22;2338;49.602;8.722;2022-07-22T13:50:25;31.80;32.70
4651;DHT22;2338;49.602;8.722;2022-07-22T13:53:13;31.80;34.00
4651;DHT22;2338;49.602;8.722;2022-07-22T13:55:58;32.00;30.90
4651;DHT22;2338;49.602;8.722;2022-07-22T13:58:44;32.10;30.40
4651;DHT22;2338;49.602;8.722;2022-07-22T14:01:30;32.10;28.90
4651;DHT22;2338;49.602;8.722;2022-07-22T14:04:16;31.80;28.80
4651;DHT22;2338;49.602;8.722;2022-07-22T14:07:01;31.90;30.50
4651;DHT22;2338;49.602;8.722;2022-07-22T14:09:48;32.10;28.90
4651;DHT22;2338;49.602;8.722;2022-07-22T14:12:34;32.10;29.00
4651;DHT22;2338;49.602;8.722;2022-07-22T14:15:20;32.30;27.00
4651;DHT22;2338;49.602;8.722;2022-07-22T14:18:06;32.30;26.50
4651;DHT22;2338;49.602;8.722;2022-07-22T14:20:52;32.20;26.30
4651;DHT22;2338;49.602;8.722;2022-07-22T14:23:37;32.10;26.80
4651;DHT22;2338;49.602;8.722;2022-07-22T14:26:24;32.20;27.50
4651;DHT22;2338;49.602;8.722;2022-07-22T14:29:11;32.30;27.40
4651;DHT22;2338;49.602;8.722;2022-07-22T14:31:57;32.40;27.50
4651;DHT22;2338;49.602;8.722;2022-07-22T14:34:42;32.40;28.10
4651;DHT22;2338;49.602;8.722;2022-07-22T14:37:28;32.40;26.90
4651;DHT22;2338;49.602;8.722;2022-07-22T14:40:14;32.20;26.80
4651;DHT22;2338;49.602;8.722;2022-07-22T14:43:01;32.00;26.10
4651;DHT22;2338;49.602;8.722;2022-07-22T14:45:46;31.90;28.90
4651;DHT22;2338;49.602;8.722;2022-07-22T14:48:32;32.00;27.80
4651;DHT22;2338;49.602;8.722;2022-07-22T14:51:19;32.00;26.70
4651;DHT22;2338;49.602;8.722;2022-07-22T14:54:05;32.00;26.90
4651;DHT22;2338;49.602;8.722;2022-07-22T14:56:52;32.00;27.90
4651;DHT22;2338;49.602;8.722;2022-07-22T14:59:39;32.00;27.40
4651;DHT22;2338;49.602;8.722;2022-07-22T15:02:25;32.00;27.10
4651;DHT22;2338;49.602;8.722;2022-07-22T15:05:10;31.90;27.60
4651;DHT22;2338;49.602;8.722;2022-07-22T15:07:57;32.00;27.20
4651;DHT22;2338;49.602;8.722;2022-07-22T15:10:42;31.90;28.20
4651;DHT22;2338;49.602;8.722;2022-07-22T15:13:28;32.00;28.60
4651;DHT22;2338;49.602;8.722;2022-07-22T15:16:15;31.90;27.50
4651;DHT22;2338;49.602;8.722;2022-07-22T15:19:00;31.70;26.80
4651;DHT22;2338;49.602;8.722;2022-07-22T15:21:46;31.50;26.70
4651;DHT22;2338;49.602;8.722;2022-07-22T15:24:31;31.30;26.30
4651;DHT22;2338;49.602;8.722;2022-07-22T15:27:17;31.10;26.60
4651;DHT22;2338;49.602;8.722;2022-07-22T15:30:03;31.20;27.50
4651;DHT22;2338;49.602;8.722;2022-07-22T15:32:50;31.30;28.30
4651;DHT22;2338;49.602;8.722;2022-07-22T15:35:36;31.20;28.00
4651;DHT22;2338;49.602;8.722;2022-07-22T15:38:21;31.30;27.40
4651;DHT22;2338;49.602;8.722;2022-07-22T15:41:08;31.30;27.60
4651;DHT22;2338;49.602;8.722;2022-07-22T15:43:53;31.40;28.00
4651;DHT22;2338;49.602;8.722;2022-07-22T15:46:39;31.50;27.20
4651;DHT22;2338;49.602;8.722;2022-07-22T15:49:26;31.50;27.60
4651;DHT22;2338;49.602;8.722;2022-07-22T15:52:12;31.40;27.30
4651;DHT22;2338;49.602;8.722;2022-07-22T15:54:57;31.40;27.90
4651;DHT22;2338;49.602;8.722;2022-07-22T15:57:44;31.40;28.00
4651;DHT22;2338;49.602;8.722;2022-07-22T16:00:49;31.40;27.80
4651;DHT22;2338;49.602;8.722;2022-07-22T16:03:34;31.40;29.40
4651;DHT22;2338;49.602;8.722;2022-07-22T16:06:21;31.30;30.00
4651;DHT22;2338;49.602;8.722;2022-07-22T16:09:07;31.20;29.70
4651;DHT22;2338;49.602;8.722;2022-07-22T16:11:53;30.80;28.50
4651;DHT22;2338;49.602;8.722;2022-07-22T16:14:39;30.60;28.80
4651;DHT22;2338;49.602;8.722;2022-07-22T16:17:25;30.50;28.50
4651;DHT22;2338;49.602;8.722;2022-07-22T16:20:10;30.40;29.50
4651;DHT22;2338;49.602;8.722;2022-07-22T16:22:59;30.40;30.00
4651;DHT22;2338;49.602;8.722;2022-07-22T16:25:44;30.50;30.30
4651;DHT22;2338;49.602;8.722;2022-07-22T16:28:30;30.70;31.00
4651;DHT22;2338;49.602;8.722;2022-07-22T16:31:16;30.70;30.90
4651;DHT22;2338;49.602;8.722;2022-07-22T16:34:02;30.70;30.90
4651;DHT22;2338;49.602;8.722;2022-07-22T16:36:51;30.60;29.80
4651;DHT22;2338;49.602;8.722;2022-07-22T16:39:39;30.50;32.60
4651;DHT22;2338;49.602;8.722;2022-07-22T16:42:25;30.50;32.70
4651;DHT22;2338;49.602;8.722;2022-07-22T16:45:11;30.60;31.00
4651;DHT22;2338;49.602;8.722;2022-07-22T16:47:57;30.70;30.20
4651;DHT22;2338;49.602;8.722;2022-07-22T16:50:42;30.60;32.00
4651;DHT22;2338;49.602;8.722;2022-07-22T16:53:28;30.60;31.60
4651;DHT22;2338;49.602;8.722;2022-07-22T16:56:15;30.50;32.30
4651;DHT22;2338;49.602;8.722;2022-07-22T16:59:01;30.50;34.80
4651;DHT22;2338;49.602;8.722;2022-07-22T17:01:47;30.30;36.10
4651;DHT22;2338;49.602;8.722;2022-07-22T17:04:33;30.20;35.90
4651;DHT22;2338;49.602;8.722;2022-07-22T17:07:18;30.20;37.40
4651;DHT22;2338;49.602;8.722;2022-07-22T17:10:05;29.90;39.00
4651;DHT22;2338;49.602;8.722;2022-07-22T17:12:52;29.80;40.30
4651;DHT22;2338;49.602;8.722;2022-07-22T17:15:37;29.70;41.80
4651;DHT22;2338;49.602;8.722;2022-07-22T17:18:23;29.60;42.20
4651;DHT22;2338;49.602;8.722;2022-07-22T17:21:09;29.40;44.90
4651;DHT22;2338;49.602;8.722;2022-07-22T17:23:56;29.10;44.80
4651;DHT22;2338;49.602;8.722;2022-07-22T17:26:42;29.10;40.00
4651;DHT22;2338;49.602;8.722;2022-07-22T17:29:29;29.00;39.20
4651;DHT22;2338;49.602;8.722;2022-07-22T17:32:15;29.00;36.80
4651;DHT22;2338;49.602;8.722;2022-07-22T17:35:00;29.10;37.40
4651;DHT22;2338;49.602;8.722;2022-07-22T17:37:46;29.10;35.50
4651;DHT22;2338;49.602;8.722;2022-07-22T17:40:32;29.10;37.40
4651;DHT22;2338;49.602;8.722;2022-07-22T17:43:17;29.10;38.10
4651;DHT22;2338;49.602;8.722;2022-07-22T17:46:05;29.00;41.00
4651;DHT22;2338;49.602;8.722;2022-07-22T17:48:51;28.90;41.40
4651;DHT22;2338;49.602;8.722;2022-07-22T17:51:36;28.80;42.20
4651;DHT22;2338;49.602;8.722;2022-07-22T17:54:22;28.60;47.90
4651;DHT22;2338;49.602;8.722;2022-07-22T17:57:08;28.40;50.30
4651;DHT22;2338;49.602;8.722;2022-07-22T17:59:53;28.20;51.00
4651;DHT22;2338;49.602;8.722;2022-07-22T18:02:40;28.10;54.10
4651;DHT22;2338;49.602;8.722;2022-07-22T18:05:29;27.90;53.20
4651;DHT22;2338;49.602;8.722;2022-07-22T18:08:14;27.80;56.10